Time;durP1;ratioP1;P1;durP2;ratioP2;P2;SDS_P1;SDS_P2;PMS_P1;PMS_P2;Temp;Humidity;BMP_temperature;BMP_pressure;BME280_temperature;BME280_humidity;BME280_pressure;Samples;Min_cycle;Max_cycle;Signal;HPM_P1;HPM_P2
2022/10/24 00:00:40;;;;;;;8.53;4.77;;;18.00;99.90;;;;;;5009849;28;20378;-70
2022/10/24 00:03:06;;;;;;;16.33;5.67;;;17.90;99.90;;;;;;5024045;28;20183;-69
2022/10/24 00:05:32;;;;;;;14.03;5.17;;;17.90;99.90;;;;;;5008186;28;20446;-70
2022/10/24 00:07:57;;;;;;;7.60;5.10;;;17.90;99.90;;;;;;5006766;28;20172;-69
2022/10/24 00:10:23;;;;;;;9.90;4.57;;;17.90;99.90;;;;;;5022249;28;20205;-70
2022/10/24 00:12:49;;;;;;;8.33;4.40;;;17.90;99.90;;;;;;5004253;28;20670;-70
2022/10/24 00:15:15;;;;;;;8.10;4.20;;;17.80;99.90;;;;;;5021448;28;20390;-69
2022/10/24 00:17:40;;;;;;;10.70;4.00;;;17.80;99.90;;;;;;5023179;28;20223;-69
2022/10/24 00:20:07;;;;;;;19.67;4.30;;;17.80;99.90;;;;;;5009573;28;20450;-70
2022/10/24 00:22:33;;;;;;;10.50;5.20;;;17.80;99.90;;;;;;5023418;28;21262;-69
2022/10/24 00:24:58;;;;;;;10.17;4.30;;;17.80;99.90;;;;;;5021550;28;20472;-69
2022/10/24 00:27:24;;;;;;;7.53;3.73;;;17.80;99.90;;;;;;5001945;28;20198;-70
2022/10/24 00:29:50;;;;;;;12.90;4.40;;;17.80;99.90;;;;;;5022790;28;20635;-69
2022/10/24 00:32:15;;;;;;;7.50;4.70;;;17.80;99.90;;;;;;5007978;28;20209;-70
2022/10/24 00:34:41;;;;;;;10.23;4.53;;;17.80;99.90;;;;;;5026623;28;20562;-69
2022/10/24 00:37:07;;;;;;;6.97;4.20;;;17.90;99.90;;;;;;5019952;28;20184;-70
2022/10/24 00:39:33;;;;;;;6.70;4.30;;;17.80;99.90;;;;;;5021891;28;20569;-69
2022/10/24 00:41:58;;;;;;;11.83;4.37;;;17.80;99.90;;;;;;4984560;28;20215;-69
2022/10/24 00:44:25;;;;;;;13.20;6.50;;;17.80;99.90;;;;;;5003287;28;20181;-70
2022/10/24 00:47:11;;;;;;;10.70;4.20;;;17.80;99.90;;;;;;5024788;28;20187;-70
2022/10/24 00:49:48;;;;;;;11.73;4.90;;;17.80;99.90;;;;;;5021780;28;20466;-70
2022/10/24 00:52:16;;;;;;;10.33;4.00;;;17.80;99.90;;;;;;5025181;28;20442;-70
2022/10/24 00:54:43;;;;;;;14.63;4.00;;;17.80;99.90;;;;;;5006708;28;20540;-70
2022/10/24 00:57:27;;;;;;;8.60;4.43;;;17.80;99.90;;;;;;5022716;28;20441;-70
2022/10/24 00:59:59;;;;;;;7.67;4.73;;;17.80;99.90;;;;;;5026513;28;20451;-69
2022/10/24 01:02:25;;;;;;;10.57;4.17;;;17.70;99.90;;;;;;5003848;28;20434;-70
2022/10/24 01:04:53;;;;;;;9.40;5.20;;;17.70;99.90;;;;;;5021559;28;20438;-70
2022/10/24 01:07:41;;;;;;;8.27;3.60;;;17.70;99.90;;;;;;5005202;28;20427;-69
2022/10/24 01:10:19;;;;;;;7.73;3.60;;;17.70;99.90;;;;;;5003421;28;20463;-70
2022/10/24 01:12:58;;;;;;;17.20;4.40;;;17.70;99.90;;;;;;5019796;28;20955;-69
2022/10/24 01:15:40;;;;;;;9.30;4.00;;;17.60;99.90;;;;;;5023298;28;20455;-70
2022/10/24 01:18:14;;;;;;;5.27;3.03;;;17.60;99.90;;;;;;5002227;28;20457;-69
2022/10/24 01:21:01;;;;;;;8.37;3.67;;;17.70;99.90;;;;;;5020124;28;20509;-68
2022/10/24 01:24:07;;;;;;;13.00;3.90;;;17.70;99.90;;;;;;5005882;28;21077;-69
2022/10/24 01:27:10;;;;;;;10.13;3.50;;;17.70;99.90;;;;;;5006324;28;20481;-69
2022/10/24 01:30:04;;;;;;;14.97;3.37;;;17.70;99.90;;;;;;5025200;28;20979;-69
2022/10/24 01:32:33;;;;;;;4.50;3.27;;;17.70;99.90;;;;;;5018540;28;20643;-70
2022/10/24 01:35:09;;;;;;;14.80;3.77;;;17.70;99.90;;;;;;5018073;28;21063;-70
2022/10/24 01:37:51;;;;;;;7.30;4.10;;;17.70;99.90;;;;;;5002017;28;20449;-70
2022/10/24 01:40:32;;;;;;;8.67;3.67;;;17.70;99.90;;;;;;5017190;28;20474;-70
2022/10/24 01:43:04;;;;;;;4.00;2.93;;;17.60;99.90;;;;;;5026231;28;20517;-70
2022/10/24 01:45:34;;;;;;;7.80;3.70;;;17.60;99.90;;;;;;5019371;28;20443;-70
2022/10/24 01:48:04;;;;;;;7.47;3.70;;;17.60;99.90;;;;;;5015766;28;20446;-70
2022/10/24 01:50:31;;;;;;;9.83;3.80;;;17.60;99.90;;;;;;5022677;28;20512;-70
2022/10/24 01:52:58;;;;;;;8.80;3.43;;;17.60;99.90;;;;;;5021874;28;20524;-70
2022/10/24 01:55:24;;;;;;;8.13;3.70;;;17.50;99.90;;;;;;5024239;28;20683;-70
2022/10/24 01:57:50;;;;;;;5.97;3.73;;;17.50;99.90;;;;;;5015150;28;20431;-70
2022/10/24 02:00:19;;;;;;;7.00;4.23;;;17.50;99.90;;;;;;5014877;28;20573;-69
2022/10/24 02:03:00;;;;;;;15.10;4.07;;;17.50;99.90;;;;;;5023764;28;20196;-69
2022/10/24 02:05:55;;;;;;;8.10;4.10;;;17.40;99.90;;;;;;5029257;28;20493;-70
2022/10/24 02:08:27;;;;;;;6.90;4.30;;;17.40;99.90;;;;;;5023462;28;20454;-70
2022/10/24 02:10:58;;;;;;;13.77;4.27;;;17.40;99.90;;;;;;5027022;28;21235;-70
2022/10/24 02:13:41;;;;;;;8.97;4.13;;;17.40;99.90;;;;;;5011993;28;20446;-70
2022/10/24 02:16:08;;;;;;;12.00;4.30;;;17.40;99.90;;;;;;5004957;28;20466;-70
2022/10/24 02:18:34;;;;;;;8.80;4.20;;;17.40;99.90;;;;;;5006116;28;20500;-69
2022/10/24 02:21:23;;;;;;;10.60;5.50;;;17.40;99.90;;;;;;5029496;28;20465;-70
2022/10/24 02:23:58;;;;;;;12.03;4.93;;;17.30;99.90;;;;;;5011697;28;20434;-69
2022/10/24 02:26:45;;;;;;;8.50;4.23;;;17.30;99.90;;;;;;5027575;28;21581;-70
2022/10/24 02:29:15;;;;;;;9.47;4.43;;;17.30;99.90;;;;;;5003176;28;20956;-70
2022/10/24 02:31:49;;;;;;;18.93;4.50;;;17.30;99.90;;;;;;5023307;28;20446;-70
2022/10/24 02:34:16;;;;;;;12.03;3.57;;;17.30;99.90;;;;;;5022690;28;20458;-70
2022/10/24 02:36:44;;;;;;;6.20;3.80;;;17.30;99.90;;;;;;5026185;28;20886;-70
2022/10/24 02:39:11;;;;;;;7.50;3.63;;;17.30;99.90;;;;;;5008889;28;20975;-70
2022/10/24 02:41:39;;;;;;;11.67;4.03;;;17.30;99.90;;;;;;5023026;28;20557;-70
2022/10/24 02:44:07;;;;;;;8.43;3.87;;;17.20;99.90;;;;;;5021063;28;20958;-70
2022/10/24 02:46:34;;;;;;;13.60;3.83;;;17.30;99.90;;;;;;5017870;28;20443;-69
2022/10/24 02:49:02;;;;;;;14.23;4.60;;;17.30;99.90;;;;;;5023109;28;20928;-70
2022/10/24 02:51:32;;;;;;;7.77;4.33;;;17.30;99.90;;;;;;5021988;28;20486;-69
2022/10/24 02:53:59;;;;;;;9.03;4.27;;;17.30;99.90;;;;;;5022471;28;20451;-69
2022/10/24 02:56:25;;;;;;;7.13;3.20;;;17.30;99.90;;;;;;5028436;28;20581;-69
2022/10/24 02:58:51;;;;;;;11.87;4.20;;;17.30;99.90;;;;;;5005027;28;20443;-69
2022/10/24 03:01:17;;;;;;;13.00;4.20;;;17.30;99.90;;;;;;5020419;28;20471;-70
2022/10/24 03:03:42;;;;;;;9.90;3.60;;;17.30;99.90;;;;;;5021441;28;20200;-69
2022/10/24 03:06:08;;;;;;;11.23;5.13;;;17.30;99.90;;;;;;5019309;28;20188;-70
2022/10/24 03:08:34;;;;;;;10.00;3.47;;;17.30;99.90;;;;;;5023782;28;20250;-70
2022/10/24 03:10:59;;;;;;;9.40;3.70;;;17.30;99.90;;;;;;5023851;28;20887;-70
2022/10/24 03:13:25;;;;;;;6.67;3.70;;;17.30;99.90;;;;;;5024132;28;20189;-70
2022/10/24 03:15:50;;;;;;;7.90;3.63;;;17.40;99.90;;;;;;5003900;28;20200;-70
2022/10/24 03:18:16;;;;;;;12.43;3.93;;;17.40;99.90;;;;;;5023428;28;20183;-70
2022/10/24 03:20:42;;;;;;;11.13;4.50;;;17.40;99.90;;;;;;5020187;28;20224;-69
2022/10/24 03:23:07;;;;;;;6.77;3.70;;;17.40;99.90;;;;;;5024991;28;20185;-69
2022/10/24 03:25:33;;;;;;;9.73;3.83;;;17.40;99.90;;;;;;5027059;28;20196;-69
2022/10/24 03:27:58;;;;;;;9.03;4.30;;;17.40;99.90;;;;;;5026584;28;20260;-69
2022/10/24 03:30:24;;;;;;;7.07;3.90;;;17.40;99.90;;;;;;5021136;28;20248;-70
2022/10/24 03:32:50;;;;;;;5.20;3.67;;;17.40;99.90;;;;;;5021475;28;20193;-70
2022/10/24 03:35:15;;;;;;;6.20;3.67;;;17.40;99.90;;;;;;5022533;28;20649;-69
2022/10/24 03:37:42;;;;;;;9.70;3.47;;;17.40;99.90;;;;;;5022999;28;20185;-70
2022/10/24 03:40:09;;;;;;;8.67;4.20;;;17.40;99.90;;;;;;5025664;28;20220;-69
2022/10/24 03:42:34;;;;;;;8.57;4.13;;;17.40;99.90;;;;;;5019417;28;20444;-70
2022/10/24 03:45:00;;;;;;;9.87;3.87;;;17.40;99.90;;;;;;5021614;28;20436;-69
2022/10/24 03:47:26;;;;;;;8.23;4.20;;;17.40;99.90;;;;;;5022378;28;20195;-70
2022/10/24 03:49:51;;;;;;;10.13;4.47;;;17.40;99.90;;;;;;5026140;28;20646;-70
2022/10/24 03:52:17;;;;;;;6.90;3.97;;;17.40;99.90;;;;;;5026121;28;20184;-69
2022/10/24 03:54:43;;;;;;;7.13;4.50;;;17.40;99.90;;;;;;5026543;28;20206;-70
2022/10/24 03:57:08;;;;;;;7.80;4.10;;;17.40;99.90;;;;;;5022587;28;20268;-69
2022/10/24 03:59:35;;;;;;;10.63;4.47;;;17.40;99.90;;;;;;5026871;28;20191;-69
2022/10/24 04:02:01;;;;;;;10.20;3.90;;;17.40;99.90;;;;;;5007251;28;20265;-70
2022/10/24 04:04:27;;;;;;;9.50;4.97;;;17.40;99.90;;;;;;5021898;28;20795;-70
2022/10/24 04:06:53;;;;;;;9.87;3.97;;;17.40;99.90;;;;;;5027239;28;20446;-70
2022/10/24 04:09:19;;;;;;;10.63;4.20;;;17.40;99.90;;;;;;5027649;28;20665;-70
2022/10/24 04:11:46;;;;;;;6.63;4.50;;;17.40;99.90;;;;;;5032304;28;20238;-69
2022/10/24 04:14:11;;;;;;;8.00;3.60;;;17.40;99.90;;;;;;5029250;28;20442;-70
2022/10/24 04:16:37;;;;;;;8.07;3.40;;;17.40;99.90;;;;;;5023347;28;20467;-70
2022/10/24 04:19:03;;;;;;;8.23;4.00;;;17.40;99.90;;;;;;5025561;28;20270;-70
2022/10/24 04:21:29;;;;;;;10.40;5.10;;;17.40;99.90;;;;;;5023395;28;20792;-70
2022/10/24 04:23:55;;;;;;;7.33;4.43;;;17.40;99.90;;;;;;5019504;28;20225;-70
2022/10/24 04:26:20;;;;;;;9.37;4.93;;;17.40;99.90;;;;;;5027573;28;20833;-70
2022/10/24 04:28:47;;;;;;;12.47;4.20;;;17.40;99.90;;;;;;5033634;28;20442;-70
2022/10/24 04:31:13;;;;;;;8.20;4.33;;;17.40;99.90;;;;;;5020318;28;20255;-70
2022/10/24 04:33:38;;;;;;;6.97;4.33;;;17.40;99.90;;;;;;5022856;28;21033;-69
2022/10/24 04:36:04;;;;;;;9.73;4.47;;;17.50;99.90;;;;;;5019334;28;20471;-70
2022/10/24 04:38:30;;;;;;;8.87;4.00;;;17.50;99.90;;;;;;5021081;28;20196;-70
2022/10/24 04:40:56;;;;;;;11.30;4.37;;;17.50;99.90;;;;;;5024682;28;20983;-69
2022/10/24 04:43:22;;;;;;;7.30;4.30;;;17.50;99.90;;;;;;5020032;28;20188;-72
2022/10/24 04:45:48;;;;;;;9.93;4.70;;;17.50;99.90;;;;;;5020908;28;21043;-71
2022/10/24 04:48:14;;;;;;;9.27;4.03;;;17.50;99.90;;;;;;5018517;28;20443;-71
2022/10/24 04:50:42;;;;;;;8.97;4.73;;;17.50;99.90;;;;;;5024513;28;20215;-70
2022/10/24 04:53:08;;;;;;;6.53;4.10;;;17.40;99.90;;;;;;5020404;28;20543;-70
2022/10/24 04:55:34;;;;;;;13.70;5.20;;;17.40;99.90;;;;;;5024401;28;20891;-70
2022/10/24 04:58:00;;;;;;;8.47;4.60;;;17.50;99.90;;;;;;5024566;28;20263;-70
2022/10/24 05:00:26;;;;;;;6.53;3.53;;;17.40;99.90;;;;;;5023317;28;20462;-70
2022/10/24 05:02:51;;;;;;;10.73;4.60;;;17.40;99.90;;;;;;5020419;28;20442;-70
2022/10/24 05:05:17;;;;;;;13.60;4.47;;;17.40;99.90;;;;;;5024603;28;20675;-71
2022/10/24 05:07:44;;;;;;;11.50;4.53;;;17.40;99.90;;;;;;5023859;28;20268;-71
2022/10/24 05:10:10;;;;;;;11.73;4.30;;;17.50;99.90;;;;;;5024033;28;20227;-71
2022/10/24 05:12:36;;;;;;;7.77;3.83;;;17.50;99.90;;;;;;5028913;28;20446;-70
2022/10/24 05:15:01;;;;;;;10.80;4.47;;;17.50;99.90;;;;;;5026178;28;20438;-70
2022/10/24 05:17:27;;;;;;;6.43;3.43;;;17.50;99.90;;;;;;5018371;28;20219;-70
2022/10/24 05:19:52;;;;;;;6.70;3.57;;;17.60;99.90;;;;;;5022991;28;20721;-69
2022/10/24 05:22:18;;;;;;;12.33;4.00;;;17.60;99.90;;;;;;5023375;28;20263;-70
2022/10/24 05:24:43;;;;;;;9.00;3.87;;;17.70;99.90;;;;;;5022931;28;20181;-70
2022/10/24 05:27:09;;;;;;;12.50;4.30;;;17.60;99.90;;;;;;5025746;28;20183;-70
2022/10/24 05:29:35;;;;;;;12.13;5.03;;;17.60;99.90;;;;;;5027758;28;20728;-70
2022/10/24 05:32:01;;;;;;;11.70;5.33;;;17.70;99.90;;;;;;5023482;28;20665;-71
2022/10/24 05:34:27;;;;;;;11.63;4.17;;;17.70;99.90;;;;;;5025741;28;20180;-70
2022/10/24 05:36:53;;;;;;;14.87;4.60;;;17.60;99.90;;;;;;5024508;28;20485;-70
2022/10/24 05:39:18;;;;;;;13.10;4.80;;;17.60;99.90;;;;;;5019303;28;20181;-70
2022/10/24 05:41:44;;;;;;;9.57;4.10;;;17.60;99.90;;;;;;5026906;28;20231;-70
2022/10/24 05:44:13;;;;;;;12.90;4.97;;;17.50;99.90;;;;;;5021838;28;20702;-70
2022/10/24 05:46:39;;;;;;;14.17;3.60;;;17.60;99.90;;;;;;5026068;28;20184;-70
2022/10/24 05:49:05;;;;;;;11.13;4.60;;;17.60;99.90;;;;;;5019534;28;20439;-70
2022/10/24 05:51:31;;;;;;;14.00;4.03;;;17.60;99.90;;;;;;5020074;28;20952;-70
2022/10/24 05:53:57;;;;;;;15.70;5.00;;;17.60;99.90;;;;;;5019252;28;20525;-70
2022/10/24 05:56:23;;;;;;;9.70;3.70;;;17.70;99.90;;;;;;5025003;28;20201;-70
2022/10/24 05:58:49;;;;;;;11.60;4.20;;;17.70;99.90;;;;;;5021151;28;20433;-70
2022/10/24 06:01:15;;;;;;;13.10;5.10;;;17.70;99.90;;;;;;5021137;28;20454;-71
2022/10/24 06:03:41;;;;;;;19.67;5.70;;;17.80;99.90;;;;;;5009519;28;20231;-70
2022/10/24 06:06:08;;;;;;;15.57;5.07;;;17.80;99.90;;;;;;5014803;28;20291;-70
2022/10/24 06:08:34;;;;;;;15.67;4.77;;;17.80;99.90;;;;;;5025223;28;20207;-70
2022/10/24 06:11:00;;;;;;;10.30;4.00;;;17.80;99.90;;;;;;5024257;28;20484;-70
2022/10/24 06:13:26;;;;;;;9.77;3.80;;;17.80;99.90;;;;;;5020647;28;20443;-70
2022/10/24 06:15:52;;;;;;;12.07;4.50;;;17.80;99.90;;;;;;5025871;28;20482;-70
2022/10/24 06:18:17;;;;;;;8.33;4.20;;;17.80;99.90;;;;;;5024456;28;20212;-70
2022/10/24 06:20:43;;;;;;;11.03;4.40;;;17.80;99.90;;;;;;5017680;28;20217;-70
2022/10/24 06:23:08;;;;;;;13.73;5.33;;;17.90;99.90;;;;;;5027523;28;20200;-70
2022/10/24 06:25:34;;;;;;;8.37;4.50;;;17.90;99.90;;;;;;5022290;28;20250;-70
2022/10/24 06:28:00;;;;;;;7.73;3.40;;;17.80;99.90;;;;;;5022646;28;20184;-71
2022/10/24 06:30:26;;;;;;;7.60;3.80;;;17.80;99.90;;;;;;5029932;28;20465;-71
2022/10/24 06:32:51;;;;;;;8.90;3.90;;;17.80;99.90;;;;;;5025368;28;20279;-70
2022/10/24 06:35:18;;;;;;;12.17;4.87;;;17.90;99.90;;;;;;5021296;28;20673;-70
2022/10/24 06:37:43;;;;;;;9.77;3.93;;;17.90;99.90;;;;;;5015299;28;20188;-72
2022/10/24 06:40:09;;;;;;;7.20;3.33;;;18.00;99.90;;;;;;5012864;28;20463;-67
2022/10/24 06:42:35;;;;;;;8.63;3.40;;;17.90;99.90;;;;;;5021258;28;20284;-67
2022/10/24 06:45:01;;;;;;;13.00;3.87;;;17.90;99.90;;;;;;5022403;28;20538;-68
2022/10/24 06:47:26;;;;;;;9.00;3.20;;;17.90;99.90;;;;;;5022206;28;20189;-67
2022/10/24 06:49:52;;;;;;;8.40;3.90;;;18.00;99.90;;;;;;5022586;28;20204;-68
2022/10/24 06:52:17;;;;;;;7.00;3.17;;;18.00;99.90;;;;;;5023616;28;20287;-67
2022/10/24 06:54:43;;;;;;;9.43;4.53;;;18.10;99.90;;;;;;5021232;28;20289;-68
2022/10/24 06:57:08;;;;;;;8.53;3.63;;;18.00;99.90;;;;;;5022261;28;20417;-68
2022/10/24 06:59:34;;;;;;;5.30;2.70;;;18.00;99.90;;;;;;5025817;28;20268;-68
2022/10/24 07:02:00;;;;;;;11.60;4.70;;;18.10;99.90;;;;;;5025397;28;20184;-68
2022/10/24 07:04:26;;;;;;;9.30;5.07;;;18.10;99.90;;;;;;5024691;28;20850;-68
2022/10/24 07:06:51;;;;;;;9.60;3.47;;;18.10;99.90;;;;;;5033611;28;20324;-68
2022/10/24 07:09:17;;;;;;;6.50;3.10;;;18.10;99.90;;;;;;5027372;28;20566;-68
2022/10/24 07:11:43;;;;;;;7.83;3.23;;;18.10;99.90;;;;;;5027397;28;20783;-69
2022/10/24 07:14:09;;;;;;;5.80;2.83;;;18.10;99.90;;;;;;5027898;28;20713;-70
2022/10/24 07:16:35;;;;;;;5.63;2.97;;;18.00;99.90;;;;;;5020745;28;20600;-70
2022/10/24 07:19:01;;;;;;;5.27;2.97;;;18.10;99.90;;;;;;5030692;28;20438;-71
2022/10/24 07:21:29;;;;;;;10.97;3.23;;;18.00;99.90;;;;;;5026500;28;20216;-70
2022/10/24 07:23:56;;;;;;;7.53;2.83;;;18.00;99.90;;;;;;5028376;28;20435;-70
2022/10/24 07:26:23;;;;;;;4.90;2.57;;;18.10;99.90;;;;;;5025246;28;20442;-69
2022/10/24 07:28:53;;;;;;;6.10;3.20;;;18.10;99.90;;;;;;5025529;28;20442;-69
2022/10/24 07:31:24;;;;;;;5.93;2.73;;;18.10;99.90;;;;;;5022487;28;21640;-72
2022/10/24 07:33:51;;;;;;;6.80;2.80;;;18.20;99.90;;;;;;5027160;28;20443;-71
2022/10/24 07:36:18;;;;;;;3.63;3.20;;;18.10;99.90;;;;;;5029053;28;20470;-72
2022/10/24 07:38:45;;;;;;;6.63;2.20;;;18.20;99.90;;;;;;5021903;28;20508;-72
2022/10/24 07:41:10;;;;;;;6.57;3.10;;;18.20;99.90;;;;;;5023090;28;20885;-72
2022/10/24 07:43:36;;;;;;;5.77;2.70;;;18.30;99.90;;;;;;5024096;28;20434;-72
2022/10/24 07:46:11;;;;;;;7.53;2.83;;;18.30;99.90;;;;;;5022476;28;20183;-68
2022/10/24 07:48:37;;;;;;;5.07;2.93;;;18.40;99.90;;;;;;5022727;28;20537;-69
2022/10/24 07:51:07;;;;;;;5.70;2.40;;;18.40;99.90;;;;;;5027409;28;20462;-69
2022/10/24 07:53:33;;;;;;;7.33;2.93;;;18.30;99.90;;;;;;5005606;28;20450;-68
2022/10/24 07:55:59;;;;;;;11.47;3.80;;;18.40;99.90;;;;;;5024982;28;20472;-68
2022/10/24 07:58:25;;;;;;;6.17;2.20;;;18.40;99.90;;;;;;5022279;28;20176;-69
2022/10/24 08:00:51;;;;;;;9.47;4.80;;;18.50;99.90;;;;;;5031092;28;20462;-70
2022/10/24 08:03:17;;;;;;;4.13;2.60;;;18.50;99.90;;;;;;5009846;28;20435;-70
2022/10/24 08:05:42;;;;;;;7.47;3.30;;;18.50;99.90;;;;;;5024473;28;20827;-69
2022/10/24 08:08:08;;;;;;;5.67;2.73;;;18.50;99.90;;;;;;5022613;28;20242;-69
2022/10/24 08:10:34;;;;;;;8.20;5.07;;;18.60;99.90;;;;;;5004429;28;20739;-68
2022/10/24 08:13:00;;;;;;;10.50;5.73;;;18.50;99.90;;;;;;5022161;28;20534;-68
2022/10/24 08:15:26;;;;;;;6.60;2.63;;;18.50;99.90;;;;;;5024262;28;20486;-69
2022/10/24 08:17:53;;;;;;;6.10;3.07;;;18.60;99.90;;;;;;5022980;28;20196;-68
2022/10/24 08:20:19;;;;;;;7.77;2.80;;;18.60;99.90;;;;;;5003119;28;20533;-68
2022/10/24 08:22:44;;;;;;;9.60;3.70;;;18.60;99.90;;;;;;5023856;28;20521;-69
2022/10/24 08:25:10;;;;;;;8.27;2.80;;;18.60;99.90;;;;;;5025539;28;20717;-70
2022/10/24 08:27:36;;;;;;;11.83;2.90;;;18.60;99.90;;;;;;5026114;28;20697;-69
2022/10/24 08:30:02;;;;;;;7.60;3.10;;;18.70;99.90;;;;;;5024948;28;20537;-70
2022/10/24 08:32:28;;;;;;;8.00;2.70;;;18.70;99.90;;;;;;5025178;28;20732;-70
2022/10/24 08:34:54;;;;;;;9.73;3.23;;;18.70;99.90;;;;;;5025619;28;20442;-71
2022/10/24 08:37:19;;;;;;;6.80;3.07;;;18.70;99.90;;;;;;5024303;28;20958;-70
2022/10/24 08:39:45;;;;;;;10.93;4.00;;;18.80;99.90;;;;;;5020666;28;20243;-69
2022/10/24 08:42:15;;;;;;;10.60;3.80;;;18.80;99.90;;;;;;5021580;28;20204;-71
2022/10/24 08:44:44;;;;;;;8.10;4.13;;;18.90;99.90;;;;;;5023772;28;20180;-71
2022/10/24 08:47:36;;;;;;;8.07;3.57;;;18.90;99.90;;;;;;5026104;28;20431;-70
2022/10/24 08:50:23;;;;;;;5.27;3.47;;;19.00;99.90;;;;;;5021605;28;20466;-67
2022/10/24 08:52:51;;;;;;;5.80;3.17;;;19.00;99.90;;;;;;5016219;28;20435;-67
2022/10/24 08:55:23;;;;;;;8.70;4.33;;;19.00;99.90;;;;;;5021216;28;20486;-68
2022/10/24 08:57:53;;;;;;;9.63;3.87;;;19.00;99.90;;;;;;5019881;28;20840;-69
2022/10/24 09:00:20;;;;;;;9.67;4.33;;;19.00;99.90;;;;;;5022260;28;20558;-69
2022/10/24 09:02:54;;;;;;;10.03;3.93;;;19.00;99.90;;;;;;5021798;28;20469;-68
2022/10/24 09:05:24;;;;;;;7.07;3.67;;;19.00;99.90;;;;;;5021044;28;20452;-68
2022/10/24 09:08:01;;;;;;;8.57;3.93;;;19.10;99.90;;;;;;4999771;28;21031;-67
2022/10/24 09:10:48;;;;;;;6.53;3.90;;;19.10;99.90;;;;;;5021097;28;20838;-68
2022/10/24 09:13:16;;;;;;;9.37;4.37;;;19.10;99.90;;;;;;5028557;28;20442;-68
2022/10/24 09:15:43;;;;;;;8.63;5.30;;;19.10;99.90;;;;;;5024288;28;20463;-68
2022/10/24 09:18:35;;;;;;;12.57;4.43;;;19.10;99.90;;;;;;5008746;28;20435;-68
2022/10/24 09:21:01;;;;;;;11.63;4.90;;;19.20;99.90;;;;;;5019933;28;20455;-68
2022/10/24 09:23:27;;;;;;;12.47;4.60;;;19.20;99.90;;;;;;5022650;28;20474;-67
2022/10/24 09:25:57;;;;;;;9.67;4.43;;;19.20;99.90;;;;;;5020103;28;20495;-67
2022/10/24 09:28:23;;;;;;;8.90;5.80;;;19.30;99.90;;;;;;5024895;28;20714;-68
2022/10/24 09:30:50;;;;;;;8.70;4.70;;;19.30;99.90;;;;;;5023786;28;20957;-67
2022/10/24 09:33:33;;;;;;;13.27;5.70;;;19.30;99.90;;;;;;5021504;28;20445;-68
2022/10/24 09:36:01;;;;;;;9.37;5.57;;;19.40;99.90;;;;;;5023968;28;20462;-68
2022/10/24 09:38:33;;;;;;;10.47;4.03;;;19.50;99.90;;;;;;5022345;28;20481;-68
2022/10/24 09:41:21;;;;;;;8.73;4.17;;;19.50;99.90;;;;;;5027523;28;20501;-68
2022/10/24 09:44:26;;;;;;;6.13;3.47;;;19.60;99.90;;;;;;5021605;28;20471;-67
2022/10/24 09:46:51;;;;;;;5.50;3.63;;;19.60;99.90;;;;;;5000298;28;20875;-67
2022/10/24 09:49:22;;;;;;;6.83;3.80;;;19.60;99.90;;;;;;5026042;28;20527;-67
2022/10/24 09:52:06;;;;;;;7.20;3.80;;;19.70;99.90;;;;;;5021000;28;20208;-68
2022/10/24 09:54:34;;;;;;;4.43;3.10;;;19.70;99.90;;;;;;5022744;28;20441;-67
2022/10/24 09:57:11;;;;;;;4.73;3.23;;;19.80;99.90;;;;;;5024110;28;20475;-67
2022/10/24 09:59:41;;;;;;;8.60;3.00;;;19.90;99.90;;;;;;5020470;28;20532;-69
2022/10/24 10:02:09;;;;;;;12.53;4.00;;;19.90;99.90;;;;;;5030500;28;20461;-66
2022/10/24 10:04:36;;;;;;;8.23;3.20;;;20.00;99.90;;;;;;5021412;28;20517;-67
2022/10/24 10:07:11;;;;;;;11.20;3.40;;;20.00;99.90;;;;;;5025787;28;20434;-67
2022/10/24 10:09:41;;;;;;;6.10;3.00;;;20.00;99.90;;;;;;5022824;28;20466;-67
2022/10/24 10:12:37;;;;;;;10.50;4.37;;;20.00;99.90;;;;;;5015218;28;20431;-67
2022/10/24 10:15:34;;;;;;;8.33;3.50;;;20.00;99.90;;;;;;5023536;28;20514;-67
2022/10/24 10:18:19;;;;;;;18.17;3.30;;;20.10;99.90;;;;;;5025267;28;20490;-68
2022/10/24 10:20:45;;;;;;;6.07;3.23;;;20.10;99.90;;;;;;5025561;28;20450;-68
2022/10/24 10:23:23;;;;;;;6.43;2.97;;;20.10;99.90;;;;;;5026807;28;20951;-67
2022/10/24 10:25:48;;;;;;;8.13;3.30;;;20.10;99.90;;;;;;5028884;28;20183;-67
2022/10/24 10:28:22;;;;;;;12.17;4.53;;;20.20;99.90;;;;;;5022140;28;20443;-67
2022/10/24 10:30:57;;;;;;;6.57;3.43;;;20.20;99.90;;;;;;5023657;28;20200;-67
2022/10/24 10:33:35;;;;;;;8.50;2.97;;;20.20;99.90;;;;;;5025013;28;20519;-67
2022/10/24 10:36:12;;;;;;;5.27;4.00;;;20.20;99.90;;;;;;5021266;28;20479;-67
2022/10/24 10:38:58;;;;;;;18.73;10.60;;;20.30;99.90;;;;;;5028176;28;20426;-68
2022/10/24 10:41:47;;;;;;;15.47;9.00;;;20.40;99.90;;;;;;5024972;28;20469;-67
2022/10/24 10:44:28;;;;;;;6.57;4.00;;;20.40;99.90;;;;;;5014950;28;20786;-66
2022/10/24 10:47:02;;;;;;;11.43;4.93;;;20.60;99.90;;;;;;5026219;28;20435;-68
2022/10/24 10:49:38;;;;;;;11.57;4.50;;;20.70;99.90;;;;;;5021819;28;20990;-68
2022/10/24 10:52:19;;;;;;;11.10;3.83;;;20.70;99.90;;;;;;5029551;28;20437;-68
2022/10/24 10:54:58;;;;;;;6.20;3.37;;;20.80;99.90;;;;;;5024387;28;20471;-67
2022/10/24 10:57:36;;;;;;;8.47;3.10;;;21.00;99.90;;;;;;5028258;28;20979;-66
2022/10/24 11:00:26;;;;;;;8.77;4.10;;;21.00;99.90;;;;;;5023729;28;20864;-67
2022/10/24 11:03:04;;;;;;;7.67;4.40;;;21.00;99.90;;;;;;5028200;28;20585;-67
2022/10/24 11:05:47;;;;;;;11.70;3.07;;;20.80;99.90;;;;;;5022680;28;20457;-67
2022/10/24 11:08:25;;;;;;;6.17;2.63;;;20.80;99.90;;;;;;5020937;28;20435;-67
2022/10/24 11:10:57;;;;;;;7.77;4.00;;;20.70;99.90;;;;;;5025018;28;20484;-68
2022/10/24 11:13:28;;;;;;;12.80;3.63;;;20.60;99.90;;;;;;5022819;28;20471;-68
2022/10/24 11:15:59;;;;;;;6.50;3.03;;;20.50;99.90;;;;;;5024612;28;20493;-67
2022/10/24 11:18:31;;;;;;;8.90;3.50;;;20.50;99.90;;;;;;5021199;28;20442;-67
2022/10/24 11:21:05;;;;;;;11.17;3.67;;;20.50;99.90;;;;;;5025832;28;20451;-66
2022/10/24 11:23:53;;;;;;;6.47;3.73;;;20.40;99.90;;;;;;5024682;28;20442;-67
2022/10/24 11:26:35;;;;;;;11.27;3.87;;;20.40;99.90;;;;;;5020256;28;20956;-66
2022/10/24 11:29:35;;;;;;;8.43;3.30;;;20.40;99.90;;;;;;5029837;28;20516;-67
2022/10/24 11:32:19;;;;;;;6.23;3.17;;;20.40;99.90;;;;;;5020460;28;20446;-67
2022/10/24 11:34:51;;;;;;;6.60;3.27;;;20.30;99.90;;;;;;5026914;28;20435;-67
2022/10/24 11:37:23;;;;;;;10.00;3.80;;;20.30;99.90;;;;;;5022012;28;20467;-67
2022/10/24 11:39:56;;;;;;;9.60;3.87;;;20.30;99.90;;;;;;5024827;28;20471;-67
2022/10/24 11:42:52;;;;;;;8.80;3.37;;;20.50;99.90;;;;;;5023948;28;20447;-67
2022/10/24 11:45:21;;;;;;;6.43;3.13;;;20.80;99.90;;;;;;5018483;28;20463;-67
2022/10/24 11:48:05;;;;;;;9.40;3.47;;;20.90;99.90;;;;;;5023344;28;20439;-67
2022/10/24 11:50:58;;;;;;;15.40;4.60;;;21.10;99.90;;;;;;5023533;28;20560;-67
2022/10/24 11:53:33;;;;;;;5.93;3.97;;;21.30;99.90;;;;;;5022244;28;20466;-67
2022/10/24 11:56:12;;;;;;;6.00;3.13;;;21.40;99.90;;;;;;5024405;28;20466;-67
2022/10/24 11:58:48;;;;;;;6.23;4.73;;;21.40;99.90;;;;;;5024258;28;20439;-67
2022/10/24 12:01:32;;;;;;;8.33;4.40;;;21.30;99.90;;;;;;5008061;28;20835;-67
2022/10/24 12:04:16;;;;;;;5.57;2.97;;;21.30;99.90;;;;;;5023440;28;20439;-66
2022/10/24 12:06:54;;;;;;;8.07;3.23;;;21.40;99.90;;;;;;5023835;28;20694;-66
2022/10/24 12:10:03;;;;;;;8.77;4.17;;;21.70;99.90;;;;;;5022181;28;20449;-67
2022/10/24 12:13:02;;;;;;;11.10;3.80;;;21.60;99.90;;;;;;5024446;28;20446;-66
2022/10/24 12:15:48;;;;;;;13.37;3.73;;;21.70;99.90;;;;;;5017849;28;20518;-66
2022/10/24 12:18:32;;;;;;;7.53;3.57;;;21.90;99.90;;;;;;5027325;28;20608;-67
2022/10/24 12:21:07;;;;;;;10.67;3.77;;;21.90;99.90;;;;;;5020683;28;20459;-67
2022/10/24 12:23:33;;;;;;;10.97;3.40;;;22.10;99.90;;;;;;5026517;28;20446;-66
2022/10/24 12:26:06;;;;;;;8.70;4.43;;;22.20;99.90;;;;;;5015218;28;20832;-67
2022/10/24 12:28:32;;;;;;;8.70;3.40;;;22.30;99.90;;;;;;5012944;28;20462;-67
2022/10/24 12:31:17;;;;;;;6.00;3.40;;;22.30;99.90;;;;;;5019143;28;20881;-67
2022/10/24 12:33:45;;;;;;;7.03;4.20;;;22.50;99.90;;;;;;5023917;28;20267;-66
2022/10/24 12:36:11;;;;;;;8.77;3.70;;;22.70;99.90;;;;;;5013894;28;20471;-66
2022/10/24 12:38:36;;;;;;;10.20;3.33;;;22.70;99.90;;;;;;5015010;28;20458;-66
2022/10/24 12:41:26;;;;;;;9.17;3.83;;;22.90;99.90;;;;;;5019634;28;20278;-66
2022/10/24 12:44:30;;;;;;;8.47;4.10;;;22.90;99.90;;;;;;5021697;28;20192;-66
2022/10/24 12:46:56;;;;;;;9.13;3.07;;;22.90;99.90;;;;;;5018296;28;20478;-67
2022/10/24 12:49:26;;;;;;;15.27;5.60;;;23.10;99.90;;;;;;5020181;28;20542;-67
2022/10/24 12:51:52;;;;;;;8.90;3.50;;;23.10;99.90;;;;;;5016932;28;20183;-66
2022/10/24 12:54:37;;;;;;;12.93;3.97;;;23.20;99.90;;;;;;5017605;28;20435;-66
2022/10/24 12:57:02;;;;;;;8.43;3.90;;;23.20;99.90;;;;;;5018613;28;20477;-66
2022/10/24 12:59:30;;;;;;;11.67;3.37;;;23.40;99.90;;;;;;5028381;22;21010;-67
2022/10/24 13:02:14;;;;;;;9.50;4.30;;;23.30;99.90;;;;;;4999438;28;20204;-66